sensor_id;sensor_type;location;lat;lon;timestamp;pressure;altitude;pressure_sealevel;temperature;humidity
77003;BME280;65939;50.060;14.288;2023-05-10T00:00:31;96846.47;;;8.94;73.79
77003;BME280;65939;50.060;14.288;2023-05-10T00:02:31;96845.97;;;8.91;74.04
77003;BME280;65939;50.060;14.288;2023-05-10T00:04:32;96854.09;;;8.87;72.83
77003;BME280;65939;50.060;14.288;2023-05-10T00:06:33;96850.16;;;8.83;73.32
77003;BME280;65939;50.060;14.288;2023-05-10T00:08:34;96846.09;;;8.81;73.62
77003;BME280;65939;50.060;14.288;2023-05-10T00:10:35;96845.56;;;8.77;73.40
77003;BME280;65939;50.060;14.288;2023-05-10T00:12:36;96849.28;;;8.75;74.11
77003;BME280;65939;50.060;14.288;2023-05-10T00:14:37;96843.44;;;8.73;73.12
77003;BME280;65939;50.060;14.288;2023-05-10T00:16:37;96840.34;;;8.69;73.70
77003;BME280;65939;50.060;14.288;2023-05-10T00:18:38;96838.84;;;8.67;73.90
77003;BME280;65939;50.060;14.288;2023-05-10T00:20:39;96835.59;;;8.65;73.88
77003;BME280;65939;50.060;14.288;2023-05-10T00:22:40;96835.09;;;8.61;73.19
77003;BME280;65939;50.060;14.288;2023-05-10T00:24:40;96836.22;;;8.58;73.14
77003;BME280;65939;50.060;14.288;2023-05-10T00:26:41;96844.31;;;8.55;73.70
77003;BME280;65939;50.060;14.288;2023-05-10T00:28:42;96841.22;;;8.52;73.49
77003;BME280;65939;50.060;14.288;2023-05-10T00:30:43;96838.78;;;8.50;74.05
77003;BME280;65939;50.060;14.288;2023-05-10T00:32:44;96836.47;;;8.47;73.48
77003;BME280;65939;50.060;14.288;2023-05-10T00:34:44;96835.81;;;8.45;74.22
77003;BME280;65939;50.060;14.288;2023-05-10T00:36:45;96832.69;;;8.42;73.75
77003;BME280;65939;50.060;14.288;2023-05-10T00:38:46;96830.25;;;8.40;74.47
77003;BME280;65939;50.060;14.288;2023-05-10T00:40:47;96824.66;;;8.35;73.79
77003;BME280;65939;50.060;14.288;2023-05-10T00:42:47;96826.59;;;8.33;74.21
77003;BME280;65939;50.060;14.288;2023-05-10T00:44:48;96825.13;;;8.30;73.92
77003;BME280;65939;50.060;14.288;2023-05-10T00:46:49;96822.66;;;8.29;73.94
77003;BME280;65939;50.060;14.288;2023-05-10T00:48:50;96818.72;;;8.25;74.76
77003;BME280;65939;50.060;14.288;2023-05-10T00:50:50;96815.63;;;8.21;74.41
77003;BME280;65939;50.060;14.288;2023-05-10T00:52:51;96815.91;;;8.18;75.02
77003;BME280;65939;50.060;14.288;2023-05-10T00:54:53;96816.25;;;8.15;74.95
77003;BME280;65939;50.060;14.288;2023-05-10T00:56:53;96815.75;;;8.11;75.26
77003;BME280;65939;50.060;14.288;2023-05-10T00:58:54;96815.06;;;8.09;75.39
77003;BME280;65939;50.060;14.288;2023-05-10T01:00:55;96815.34;;;8.06;75.38
77003;BME280;65939;50.060;14.288;2023-05-10T01:02:59;96812.94;;;8.05;75.52
77003;BME280;65939;50.060;14.288;2023-05-10T01:05:02;96808.84;;;8.02;75.79
77003;BME280;65939;50.060;14.288;2023-05-10T01:07:03;96810.75;;;8.00;75.55
77003;BME280;65939;50.060;14.288;2023-05-10T01:09:04;96809.31;;;7.98;76.20
77003;BME280;65939;50.060;14.288;2023-05-10T01:11:06;96809.44;;;7.96;76.51
77003;BME280;65939;50.060;14.288;2023-05-10T01:13:07;96813.00;;;7.95;76.65
77003;BME280;65939;50.060;14.288;2023-05-10T01:15:10;96811.38;;;7.94;76.58
77003;BME280;65939;50.060;14.288;2023-05-10T01:17:12;96809.09;;;7.91;77.39
77003;BME280;65939;50.060;14.288;2023-05-10T01:19:25;96815.09;;;7.91;76.29
77003;BME280;65939;50.060;14.288;2023-05-10T01:21:46;96804.03;;;7.89;77.16
77003;BME280;65939;50.060;14.288;2023-05-10T01:26:46;96806.78;;;7.88;76.35
77003;BME280;65939;50.060;14.288;2023-05-10T01:34:16;96792.16;;;7.87;76.33
77003;BME280;65939;50.060;14.288;2023-05-10T01:36:40;96794.09;;;7.85;76.30
77003;BME280;65939;50.060;14.288;2023-05-10T01:38:50;96789.84;;;7.84;76.89
77003;BME280;65939;50.060;14.288;2023-05-10T01:43:26;96786.75;;;7.80;77.28
77003;BME280;65939;50.060;14.288;2023-05-10T01:45:30;96782.53;;;7.79;77.99
77003;BME280;65939;50.060;14.288;2023-05-10T01:49:47;96786.88;;;7.79;77.49
77003;BME280;65939;50.060;14.288;2023-05-10T01:51:54;96791.25;;;7.78;77.09
77003;BME280;65939;50.060;14.288;2023-05-10T01:54:02;96786.22;;;7.77;77.76
77003;BME280;65939;50.060;14.288;2023-05-10T01:56:04;96788.00;;;7.76;77.82
77003;BME280;65939;50.060;14.288;2023-05-10T01:58:10;96782.94;;;7.75;77.45
77003;BME280;65939;50.060;14.288;2023-05-10T02:00:15;96786.53;;;7.74;77.59
77003;BME280;65939;50.060;14.288;2023-05-10T02:02:18;96791.03;;;7.72;77.16
77003;BME280;65939;50.060;14.288;2023-05-10T02:04:23;96777.41;;;7.70;77.65
77003;BME280;65939;50.060;14.288;2023-05-10T02:06:26;96786.19;;;7.68;77.44
77003;BME280;65939;50.060;14.288;2023-05-10T02:08:28;96785.50;;;7.66;77.33
77003;BME280;65939;50.060;14.288;2023-05-10T02:10:34;96789.88;;;7.66;77.55
77003;BME280;65939;50.060;14.288;2023-05-10T02:12:36;96792.59;;;7.64;77.85
77003;BME280;65939;50.060;14.288;2023-05-10T02:14:40;96788.56;;;7.62;77.18
77003;BME280;65939;50.060;14.288;2023-05-10T02:16:43;96784.47;;;7.59;76.64
77003;BME280;65939;50.060;14.288;2023-05-10T02:18:48;96784.75;;;7.56;76.92
77003;BME280;65939;50.060;14.288;2023-05-10T02:20:50;96781.50;;;7.54;77.64
77003;BME280;65939;50.060;14.288;2023-05-10T02:22:55;96788.63;;;7.52;77.11
77003;BME280;65939;50.060;14.288;2023-05-10T02:24:59;96786.19;;;7.51;77.34
77003;BME280;65939;50.060;14.288;2023-05-10T02:27:02;96791.50;;;7.49;77.59
77003;BME280;65939;50.060;14.288;2023-05-10T02:29:06;96788.38;;;7.46;77.48
77003;BME280;65939;50.060;14.288;2023-05-10T02:31:07;96783.34;;;7.44;77.83
77003;BME280;65939;50.060;14.288;2023-05-10T02:33:11;96789.81;;;7.40;77.11
77003;BME280;65939;50.060;14.288;2023-05-10T02:35:13;96782.31;;;7.37;78.27
77003;BME280;65939;50.060;14.288;2023-05-10T02:37:15;96780.81;;;7.34;78.26
77003;BME280;65939;50.060;14.288;2023-05-10T02:39:20;96788.91;;;7.31;78.27
77003;BME280;65939;50.060;14.288;2023-05-10T02:41:23;96784.81;;;7.29;77.90
77003;BME280;65939;50.060;14.288;2023-05-10T02:43:25;96778.16;;;7.26;77.65
77003;BME280;65939;50.060;14.288;2023-05-10T02:45:30;96778.28;;;7.25;77.71
77003;BME280;65939;50.060;14.288;2023-05-10T02:47:31;96781.84;;;7.24;78.86
77003;BME280;65939;50.060;14.288;2023-05-10T02:49:32;96782.97;;;7.21;79.06
77003;BME280;65939;50.060;14.288;2023-05-10T02:51:37;96775.34;;;7.19;79.08
77003;BME280;65939;50.060;14.288;2023-05-10T02:53:44;96783.25;;;7.18;79.02
77003;BME280;65939;50.060;14.288;2023-05-10T02:55:50;96771.25;;;7.17;79.09
77003;BME280;65939;50.060;14.288;2023-05-10T02:57:58;96775.63;;;7.16;79.20
77003;BME280;65939;50.060;14.288;2023-05-10T03:00:00;96765.25;;;7.16;79.58
77003;BME280;65939;50.060;14.288;2023-05-10T03:02:03;96768.66;;;7.17;79.75
77003;BME280;65939;50.060;14.288;2023-05-10T03:04:04;96766.88;;;7.17;79.55
77003;BME280;65939;50.060;14.288;2023-05-10T03:06:05;96756.34;;;7.19;79.52
77003;BME280;65939;50.060;14.288;2023-05-10T03:08:05;96753.59;;;7.20;80.33
77003;BME280;65939;50.060;14.288;2023-05-10T03:10:07;96762.19;;;7.21;79.80
77003;BME280;65939;50.060;14.288;2023-05-10T03:12:18;96761.38;;;7.20;79.41
77003;BME280;65939;50.060;14.288;2023-05-10T03:17:11;96766.72;;;7.19;80.08
77003;BME280;65939;50.060;14.288;2023-05-10T03:19:24;96761.38;;;7.20;80.58
77003;BME280;65939;50.060;14.288;2023-05-10T03:21:29;96761.38;;;7.20;80.48
77003;BME280;65939;50.060;14.288;2023-05-10T03:23:35;96773.09;;;7.25;80.37
77003;BME280;65939;50.060;14.288;2023-05-10T03:25:41;96776.50;;;7.25;80.43
77003;BME280;65939;50.060;14.288;2023-05-10T03:27:45;96772.00;;;7.27;79.93
77003;BME280;65939;50.060;14.288;2023-05-10T03:29:46;96781.41;;;7.28;79.90
77003;BME280;65939;50.060;14.288;2023-05-10T03:31:47;96790.81;;;7.29;80.22
77003;BME280;65939;50.060;14.288;2023-05-10T03:33:49;96785.63;;;7.29;79.69
77003;BME280;65939;50.060;14.288;2023-05-10T03:35:50;96787.28;;;7.30;79.82
77003;BME280;65939;50.060;14.288;2023-05-10T03:37:51;96787.94;;;7.32;79.89
77003;BME280;65939;50.060;14.288;2023-05-10T03:39:52;96790.25;;;7.35;79.90
77003;BME280;65939;50.060;14.288;2023-05-10T03:41:52;96787.34;;;7.38;79.31
77003;BME280;65939;50.060;14.288;2023-05-10T03:43:53;96786.25;;;7.41;80.25
77003;BME280;65939;50.060;14.288;2023-05-10T03:45:54;96791.97;;;7.44;78.97
77003;BME280;65939;50.060;14.288;2023-05-10T03:47:54;96785.66;;;7.47;79.52
77003;BME280;65939;50.060;14.288;2023-05-10T03:49:55;96782.75;;;7.50;79.61
77003;BME280;65939;50.060;14.288;2023-05-10T03:51:56;96782.44;;;7.53;79.96
77003;BME280;65939;50.060;14.288;2023-05-10T03:53:56;96786.38;;;7.57;80.11
77003;BME280;65939;50.060;14.288;2023-05-10T03:55:57;96781.69;;;7.61;79.42
77003;BME280;65939;50.060;14.288;2023-05-10T03:57:58;96788.25;;;7.65;79.59
77003;BME280;65939;50.060;14.288;2023-05-10T03:59:59;96778.38;;;7.68;79.73
77003;BME280;65939;50.060;14.288;2023-05-10T04:02:00;96778.72;;;7.74;79.73
77003;BME280;65939;50.060;14.288;2023-05-10T04:04:02;96786.88;;;7.79;79.64
77003;BME280;65939;50.060;14.288;2023-05-10T04:06:03;96780.28;;;7.84;79.33
77003;BME280;65939;50.060;14.288;2023-05-10T04:08:04;96781.47;;;7.90;78.90
77003;BME280;65939;50.060;14.288;2023-05-10T04:10:05;96790.59;;;7.94;78.92
77003;BME280;65939;50.060;14.288;2023-05-10T04:12:06;96789.97;;;8.00;79.32
77003;BME280;65939;50.060;14.288;2023-05-10T04:14:07;96788.38;;;8.07;79.27
77003;BME280;65939;50.060;14.288;2023-05-10T04:16:08;96786.00;;;8.14;78.86
77003;BME280;65939;50.060;14.288;2023-05-10T04:18:09;96784.28;;;8.23;78.48
77003;BME280;65939;50.060;14.288;2023-05-10T04:20:10;96784.63;;;8.28;78.09
77003;BME280;65939;50.060;14.288;2023-05-10T04:22:11;96796.03;;;8.35;78.61
77003;BME280;65939;50.060;14.288;2023-05-10T04:24:12;96790.94;;;8.43;77.59
77003;BME280;65939;50.060;14.288;2023-05-10T04:26:13;96785.78;;;8.51;78.02
77003;BME280;65939;50.060;14.288;2023-05-10T04:28:13;96786.78;;;8.58;77.77
77003;BME280;65939;50.060;14.288;2023-05-10T04:30:14;96787.63;;;8.67;78.19
77003;BME280;65939;50.060;14.288;2023-05-10T04:32:15;96782.59;;;8.74;78.15
77003;BME280;65939;50.060;14.288;2023-05-10T04:34:17;96778.41;;;8.81;77.44
77003;BME280;65939;50.060;14.288;2023-05-10T04:36:18;96782.19;;;8.86;77.78
77003;BME280;65939;50.060;14.288;2023-05-10T04:38:19;96781.53;;;8.93;77.58
77003;BME280;65939;50.060;14.288;2023-05-10T04:40:19;96790.50;;;8.98;77.64
77003;BME280;65939;50.060;14.288;2023-05-10T04:42:20;96784.69;;;9.04;77.31
77003;BME280;65939;50.060;14.288;2023-05-10T04:44:21;96786.63;;;9.10;77.52
77003;BME280;65939;50.060;14.288;2023-05-10T04:46:22;96787.97;;;9.15;77.22
77003;BME280;65939;50.060;14.288;2023-05-10T04:48:22;96781.16;;;9.22;76.69
77003;BME280;65939;50.060;14.288;2023-05-10T04:50:23;96776.75;;;9.30;77.52
77003;BME280;65939;50.060;14.288;2023-05-10T04:52:24;96773.34;;;9.38;76.72
77003;BME280;65939;50.060;14.288;2023-05-10T04:54:24;96771.72;;;9.45;77.13
77003;BME280;65939;50.060;14.288;2023-05-10T04:56:25;96778.59;;;9.54;76.97
77003;BME280;65939;50.060;14.288;2023-05-10T04:58:26;96774.03;;;9.65;76.07
77003;BME280;65939;50.060;14.288;2023-05-10T05:00:27;96773.22;;;9.72;76.08
77003;BME280;65939;50.060;14.288;2023-05-10T05:02:27;96772.41;;;9.80;76.40
77003;BME280;65939;50.060;14.288;2023-05-10T05:04:29;96780.22;;;9.88;76.18
77003;BME280;65939;50.060;14.288;2023-05-10T05:06:30;96783.47;;;9.98;75.94
77003;BME280;65939;50.060;14.288;2023-05-10T05:08:30;96781.50;;;10.08;75.71
77003;BME280;65939;50.060;14.288;2023-05-10T05:10:31;96776.28;;;10.17;75.52
77003;BME280;65939;50.060;14.288;2023-05-10T05:12:32;96781.50;;;10.25;75.23
77003;BME280;65939;50.060;14.288;2023-05-10T05:14:32;96785.72;;;10.34;75.26
77003;BME280;65939;50.060;14.288;2023-05-10T05:16:33;96785.56;;;10.44;74.96
77003;BME280;65939;50.060;14.288;2023-05-10T05:18:34;96788.94;;;10.52;74.31
77003;BME280;65939;50.060;14.288;2023-05-10T05:20:35;96796.09;;;10.59;74.60
77003;BME280;65939;50.060;14.288;2023-05-10T05:22:36;96790.22;;;10.65;74.09
77003;BME280;65939;50.060;14.288;2023-05-10T05:24:37;96790.38;;;10.71;73.69
77003;BME280;65939;50.060;14.288;2023-05-10T05:26:38;96787.72;;;10.79;73.32
77003;BME280;65939;50.060;14.288;2023-05-10T05:28:39;96793.91;;;10.87;73.38
77003;BME280;65939;50.060;14.288;2023-05-10T05:30:39;96798.44;;;10.93;73.71
77003;BME280;65939;50.060;14.288;2023-05-10T05:32:40;96800.22;;;11.00;73.24
77003;BME280;65939;50.060;14.288;2023-05-10T05:34:41;96794.94;;;11.09;72.90
77003;BME280;65939;50.060;14.288;2023-05-10T05:36:41;96800.47;;;11.14;72.80
77003;BME280;65939;50.060;14.288;2023-05-10T05:38:42;96801.41;;;11.21;72.71
77003;BME280;65939;50.060;14.288;2023-05-10T05:40:43;96800.38;;;11.30;72.68
77003;BME280;65939;50.060;14.288;2023-05-10T05:42:44;96798.53;;;11.39;72.58
77003;BME280;65939;50.060;14.288;2023-05-10T05:44:44;96797.66;;;11.46;72.21
77003;BME280;65939;50.060;14.288;2023-05-10T05:46:45;96801.03;;;11.55;71.87
77003;BME280;65939;50.060;14.288;2023-05-10T05:48:45;96788.75;;;11.64;72.50
77003;BME280;65939;50.060;14.288;2023-05-10T05:50:46;96787.84;;;11.71;71.43
77003;BME280;65939;50.060;14.288;2023-05-10T05:52:47;96786.78;;;11.81;70.25
77003;BME280;65939;50.060;14.288;2023-05-10T05:54:47;96785.97;;;11.88;70.30
77003;BME280;65939;50.060;14.288;2023-05-10T05:56:48;96790.31;;;11.96;69.99
77003;BME280;65939;50.060;14.288;2023-05-10T05:58:52;96793.03;;;12.03;69.41
77003;BME280;65939;50.060;14.288;2023-05-10T06:00:53;96794.78;;;12.10;69.99
77003;BME280;65939;50.060;14.288;2023-05-10T06:02:54;96793.69;;;12.19;69.92
77003;BME280;65939;50.060;14.288;2023-05-10T06:04:54;96793.78;;;12.26;70.20
77003;BME280;65939;50.060;14.288;2023-05-10T06:06:55;96786.50;;;12.36;69.11
77003;BME280;65939;50.060;14.288;2023-05-10T06:08:56;96790.66;;;12.45;68.60
77003;BME280;65939;50.060;14.288;2023-05-10T06:10:57;96794.81;;;12.55;68.83
77003;BME280;65939;50.060;14.288;2023-05-10T06:12:57;96797.53;;;12.61;69.16
77003;BME280;65939;50.060;14.288;2023-05-10T06:14:58;96799.88;;;12.71;67.55
77003;BME280;65939;50.060;14.288;2023-05-10T06:16:59;96797.97;;;12.80;67.92
77003;BME280;65939;50.060;14.288;2023-05-10T06:19:00;96799.31;;;12.90;67.75
77003;BME280;65939;50.060;14.288;2023-05-10T06:21:01;96801.47;;;13.02;68.21
77003;BME280;65939;50.060;14.288;2023-05-10T06:23:02;96800.03;;;13.14;67.41
77003;BME280;65939;50.060;14.288;2023-05-10T06:25:02;96791.91;;;13.24;68.33
77003;BME280;65939;50.060;14.288;2023-05-10T06:27:03;96797.84;;;13.32;67.06
77003;BME280;65939;50.060;14.288;2023-05-10T06:29:04;96799.38;;;13.41;67.50
77003;BME280;65939;50.060;14.288;2023-05-10T06:31:05;96803.31;;;13.52;66.35
77003;BME280;65939;50.060;14.288;2023-05-10T06:33:06;96803.81;;;13.62;66.96
77003;BME280;65939;50.060;14.288;2023-05-10T06:35:07;96788.97;;;13.70;66.51
77003;BME280;65939;50.060;14.288;2023-05-10T06:37:08;96799.13;;;13.79;67.20
77003;BME280;65939;50.060;14.288;2023-05-10T06:39:09;96797.00;;;13.89;65.90
77003;BME280;65939;50.060;14.288;2023-05-10T06:41:11;96795.66;;;14.00;65.85
77003;BME280;65939;50.060;14.288;2023-05-10T06:43:12;96797.78;;;14.11;66.58
77003;BME280;65939;50.060;14.288;2023-05-10T06:45:14;96797.44;;;14.21;65.96
77003;BME280;65939;50.060;14.288;2023-05-10T06:47:15;96801.16;;;14.33;64.70
77003;BME280;65939;50.060;14.288;2023-05-10T06:49:16;96794.78;;;14.43;65.39
77003;BME280;65939;50.060;14.288;2023-05-10T06:51:16;96797.91;;;14.53;65.05
77003;BME280;65939;50.060;14.288;2023-05-10T06:53:18;96788.44;;;14.58;64.62
77003;BME280;65939;50.060;14.288;2023-05-10T06:55:19;96799.22;;;14.70;64.93
77003;BME280;65939;50.060;14.288;2023-05-10T06:57:22;96797.66;;;14.82;64.80
77003;BME280;65939;50.060;14.288;2023-05-10T06:59:22;96807.63;;;14.94;64.33
77003;BME280;65939;50.060;14.288;2023-05-10T07:01:24;96797.78;;;15.02;63.55
77003;BME280;65939;50.060;14.288;2023-05-10T07:03:24;96791.53;;;15.10;63.91
77003;BME280;65939;50.060;14.288;2023-05-10T07:05:25;96795.03;;;15.24;63.34
77003;BME280;65939;50.060;14.288;2023-05-10T07:07:28;96793.84;;;15.40;63.59
77003;BME280;65939;50.060;14.288;2023-05-10T07:09:29;96797.31;;;15.53;62.94
77003;BME280;65939;50.060;14.288;2023-05-10T07:11:30;96793.16;;;15.66;63.00
77003;BME280;65939;50.060;14.288;2023-05-10T07:13:31;96799.81;;;15.75;62.39
77003;BME280;65939;50.060;14.288;2023-05-10T07:15:32;96791.13;;;15.81;62.39
77003;BME280;65939;50.060;14.288;2023-05-10T07:17:33;96794.59;;;15.88;61.46
77003;BME280;65939;50.060;14.288;2023-05-10T07:19:34;96784.66;;;15.97;61.33
77003;BME280;65939;50.060;14.288;2023-05-10T07:21:36;96784.66;;;16.03;61.53
77003;BME280;65939;50.060;14.288;2023-05-10T07:23:36;96786.50;;;16.10;61.98
77003;BME280;65939;50.060;14.288;2023-05-10T07:25:37;96791.78;;;16.16;61.02
77003;BME280;65939;50.060;14.288;2023-05-10T07:27:38;96786.91;;;16.20;59.93
77003;BME280;65939;50.060;14.288;2023-05-10T07:29:38;96793.78;;;16.21;60.18
77003;BME280;65939;50.060;14.288;2023-05-10T07:31:39;96790.34;;;16.27;60.94
77003;BME280;65939;50.060;14.288;2023-05-10T07:33:42;96796.19;;;16.36;60.84
77003;BME280;65939;50.060;14.288;2023-05-10T07:35:43;96800.25;;;16.45;60.10
77003;BME280;65939;50.060;14.288;2023-05-10T07:37:43;96792.13;;;16.53;59.86
77003;BME280;65939;50.060;14.288;2023-05-10T07:39:44;96795.56;;;16.60;59.99
77003;BME280;65939;50.060;14.288;2023-05-10T07:41:45;96791.50;;;16.71;60.33
77003;BME280;65939;50.060;14.288;2023-05-10T07:43:45;96793.72;;;16.81;59.62
77003;BME280;65939;50.060;14.288;2023-05-10T07:45:46;96787.63;;;16.87;60.01
77003;BME280;65939;50.060;14.288;2023-05-10T07:47:47;96796.13;;;16.95;60.04
77003;BME280;65939;50.060;14.288;2023-05-10T07:49:47;96799.13;;;17.06;59.86
77003;BME280;65939;50.060;14.288;2023-05-10T07:51:48;96794.41;;;17.14;59.17
77003;BME280;65939;50.060;14.288;2023-05-10T07:53:49;96790.38;;;17.18;59.12
77003;BME280;65939;50.060;14.288;2023-05-10T07:55:51;96797.22;;;17.26;59.54
77003;BME280;65939;50.060;14.288;2023-05-10T07:57:52;96793.94;;;17.31;58.75
77003;BME280;65939;50.060;14.288;2023-05-10T07:59:53;96799.41;;;17.36;58.16
77003;BME280;65939;50.060;14.288;2023-05-10T08:01:54;96800.16;;;17.43;58.18
77003;BME280;65939;50.060;14.288;2023-05-10T08:03:54;96795.09;;;17.48;58.95
77003;BME280;65939;50.060;14.288;2023-05-10T08:05:55;96799.06;;;17.57;58.00
77003;BME280;65939;50.060;14.288;2023-05-10T08:07:56;96797.00;;;17.66;58.41
77003;BME280;65939;50.060;14.288;2023-05-10T08:09:57;96803.88;;;17.74;58.38
77003;BME280;65939;50.060;14.288;2023-05-10T08:11:58;96793.53;;;17.79;58.32
77003;BME280;65939;50.060;14.288;2023-05-10T08:14:00;96801.38;;;17.85;58.12
77003;BME280;65939;50.060;14.288;2023-05-10T08:16:01;96798.13;;;17.90;57.82
77003;BME280;65939;50.060;14.288;2023-05-10T08:18:02;96796.44;;;17.95;57.54
77003;BME280;65939;50.060;14.288;2023-05-10T08:20:04;96797.41;;;18.01;57.64
77003;BME280;65939;50.060;14.288;2023-05-10T08:22:05;96805.50;;;18.06;57.07
77003;BME280;65939;50.060;14.288;2023-05-10T08:24:06;96798.75;;;18.10;58.17
77003;BME280;65939;50.060;14.288;2023-05-10T08:26:07;96807.25;;;18.19;57.62
77003;BME280;65939;50.060;14.288;2023-05-10T08:28:08;96803.28;;;18.28;57.82
77003;BME280;65939;50.060;14.288;2023-05-10T08:30:09;96797.38;;;18.33;57.41
77003;BME280;65939;50.060;14.288;2023-05-10T08:32:09;96805.03;;;18.41;56.88
77003;BME280;65939;50.060;14.288;2023-05-10T08:34:10;96802.09;;;18.49;56.94
77003;BME280;65939;50.060;14.288;2023-05-10T08:36:11;96808.50;;;18.60;56.84
77003;BME280;65939;50.060;14.288;2023-05-10T08:38:14;96800.31;;;18.68;56.94
77003;BME280;65939;50.060;14.288;2023-05-10T08:40:15;96793.13;;;18.75;57.37
77003;BME280;65939;50.060;14.288;2023-05-10T08:42:19;96803.19;;;18.85;56.62
77003;BME280;65939;50.060;14.288;2023-05-10T08:44:23;96800.84;;;18.95;56.58
77003;BME280;65939;50.060;14.288;2023-05-10T08:46:24;96803.66;;;19.00;56.75
77003;BME280;65939;50.060;14.288;2023-05-10T08:48:29;96798.72;;;19.04;56.26
77003;BME280;65939;50.060;14.288;2023-05-10T08:50:31;96798.28;;;19.07;55.63
77003;BME280;65939;50.060;14.288;2023-05-10T08:52:33;96807.16;;;19.12;55.73
77003;BME280;65939;50.060;14.288;2023-05-10T08:54:37;96809.66;;;19.26;56.41
77003;BME280;65939;50.060;14.288;2023-05-10T08:56:38;96807.28;;;19.36;55.46
77003;BME280;65939;50.060;14.288;2023-05-10T08:58:39;96802.03;;;19.48;55.41
77003;BME280;65939;50.060;14.288;2023-05-10T09:00:40;96802.88;;;19.60;56.08
77003;BME280;65939;50.060;14.288;2023-05-10T09:02:41;96802.81;;;19.67;55.51
77003;BME280;65939;50.060;14.288;2023-05-10T09:04:43;96803.53;;;19.74;55.23
77003;BME280;65939;50.060;14.288;2023-05-10T09:06:43;96801.03;;;19.79;54.30
77003;BME280;65939;50.060;14.288;2023-05-10T09:08:44;96797.94;;;19.82;55.08
77003;BME280;65939;50.060;14.288;2023-05-10T09:10:46;96803.91;;;19.77;53.30
77003;BME280;65939;50.060;14.288;2023-05-10T09:12:49;96802.03;;;19.66;54.35
77003;BME280;65939;50.060;14.288;2023-05-10T09:14:52;96802.81;;;19.67;55.00
77003;BME280;65939;50.060;14.288;2023-05-10T09:16:55;96804.81;;;19.71;54.74
77003;BME280;65939;50.060;14.288;2023-05-10T09:18:55;96804.69;;;19.78;54.34
77003;BME280;65939;50.060;14.288;2023-05-10T09:20:56;96802.19;;;19.83;54.54
77003;BME280;65939;50.060;14.288;2023-05-10T09:22:57;96800.50;;;19.89;54.72
77003;BME280;65939;50.060;14.288;2023-05-10T09:25:14;96803.72;;;19.91;54.36
77003;BME280;65939;50.060;14.288;2023-05-10T09:27:14;96803.25;;;19.94;53.89
77003;BME280;65939;50.060;14.288;2023-05-10T09:29:15;96804.50;;;19.91;54.00
77003;BME280;65939;50.060;14.288;2023-05-10T09:31:16;96812.59;;;19.96;55.63
77003;BME280;65939;50.060;14.288;2023-05-10T09:33:18;96808.94;;;20.09;54.31
77003;BME280;65939;50.060;14.288;2023-05-10T09:35:21;96807.69;;;20.23;55.25
77003;BME280;65939;50.060;14.288;2023-05-10T09:37:29;96811.06;;;20.42;55.07
77003;BME280;65939;50.060;14.288;2023-05-10T09:39:36;96806.91;;;20.46;53.89
77003;BME280;65939;50.060;14.288;2023-05-10T09:41:37;96803.94;;;20.54;54.38
77003;BME280;65939;50.060;14.288;2023-05-10T09:43:38;96804.72;;;20.67;54.52
77003;BME280;65939;50.060;14.288;2023-05-10T09:45:41;96798.63;;;20.78;54.51
77003;BME280;65939;50.060;14.288;2023-05-10T09:47:41;96795.94;;;20.90;53.97
77003;BME280;65939;50.060;14.288;2023-05-10T09:49:42;96800.44;;;21.01;53.73
77003;BME280;65939;50.060;14.288;2023-05-10T09:51:42;96804.44;;;21.15;53.86
77003;BME280;65939;50.060;14.288;2023-05-10T09:53:43;96800.59;;;21.23;53.35
77003;BME280;65939;50.060;14.288;2023-05-10T09:55:46;96804.66;;;21.25;52.69
77003;BME280;65939;50.060;14.288;2023-05-10T09:57:48;96797.88;;;21.18;52.26
77003;BME280;65939;50.060;14.288;2023-05-10T09:59:49;96800.72;;;21.16;53.00
77003;BME280;65939;50.060;14.288;2023-05-10T10:01:52;96796.00;;;21.18;53.32
77003;BME280;65939;50.060;14.288;2023-05-10T10:03:52;96794.50;;;21.22;53.43
77003;BME280;65939;50.060;14.288;2023-05-10T10:05:54;96796.69;;;21.25;52.32
77003;BME280;65939;50.060;14.288;2023-05-10T10:08:01;96799.66;;;21.29;53.02
77003;BME280;65939;50.060;14.288;2023-05-10T10:10:03;96792.50;;;21.41;52.62
77003;BME280;65939;50.060;14.288;2023-05-10T10:12:05;96791.34;;;21.49;53.10
77003;BME280;65939;50.060;14.288;2023-05-10T10:14:06;96795.44;;;21.57;52.94
77003;BME280;65939;50.060;14.288;2023-05-10T10:16:08;96799.00;;;21.62;52.33
77003;BME280;65939;50.060;14.288;2023-05-10T10:18:13;96793.06;;;21.72;52.40
77003;BME280;65939;50.060;14.288;2023-05-10T10:20:16;96796.13;;;21.81;53.33
77003;BME280;65939;50.060;14.288;2023-05-10T10:22:17;96792.69;;;21.97;52.47
77003;BME280;65939;50.060;14.288;2023-05-10T10:24:17;96790.06;;;22.14;52.03
77003;BME280;65939;50.060;14.288;2023-05-10T10:26:19;96796.53;;;22.18;52.27
77003;BME280;65939;50.060;14.288;2023-05-10T10:30:41;96790.53;;;22.44;52.42
77003;BME280;65939;50.060;14.288;2023-05-10T10:33:06;96787.69;;;22.68;51.89
77003;BME280;65939;50.060;14.288;2023-05-10T10:35:13;96790.00;;;22.81;51.85
77003;BME280;65939;50.060;14.288;2023-05-10T10:37:15;96793.66;;;22.92;51.94
77003;BME280;65939;50.060;14.288;2023-05-10T10:39:16;96786.34;;;23.04;51.52
77003;BME280;65939;50.060;14.288;2023-05-10T10:41:33;96789.69;;;23.16;50.14
77003;BME280;65939;50.060;14.288;2023-05-10T10:43:34;96778.84;;;23.23;50.40
77003;BME280;65939;50.060;14.288;2023-05-10T10:45:39;96785.34;;;23.32;50.78
77003;BME280;65939;50.060;14.288;2023-05-10T10:47:39;96778.53;;;23.41;50.43
77003;BME280;65939;50.060;14.288;2023-05-10T10:54:27;96779.00;;;23.87;49.87
77003;BME280;65939;50.060;14.288;2023-05-10T10:56:28;96777.97;;;23.94;48.75
77003;BME280;65939;50.060;14.288;2023-05-10T10:58:32;96778.56;;;24.01;49.96
77003;BME280;65939;50.060;14.288;2023-05-10T11:00:38;96774.31;;;24.00;49.57
77003;BME280;65939;50.060;14.288;2023-05-10T11:04:43;96764.25;;;23.80;49.67
77003;BME280;65939;50.060;14.288;2023-05-10T11:06:46;96772.97;;;23.70;49.58